Time;durP1;ratioP1;P1;durP2;ratioP2;P2;SDS_P1;SDS_P2;PMS_P1;PMS_P2;Temp;Humidity;BMP_temperature;BMP_pressure;BME280_temperature;BME280_humidity;BME280_pressure;Samples;Min_cycle;Max_cycle;Signal;HPM_P1;HPM_P2
2019/04/13 00:01:50;;;;;;;3.4;3.1;;;;;;;22.8;24.00781;1006.201;;;;
2019/04/13 00:08:36;;;;;;;3.4;3.1;;;;;;;22.82;23.9502;1006.166;;;;
2019/04/13 00:12:06;;;;;;;3.4;3.1;;;;;;;22.82;23.96191;1006.179;;;;
2019/04/13 00:15:24;;;;;;;3.3;3;;;;;;;22.83;23.95117;1006.104;;;;
2019/04/13 00:18:38;;;;;;;3.3;3;;;;;;;22.81;23.97266;1006.059;;;;
2019/04/13 00:21:58;;;;;;;3.6;3.2;;;;;;;22.81;23.97363;1005.985;;;;
2019/04/13 00:25:13;;;;;;;3.4;3.1;;;;;;;22.8;23.98438;1006.047;;;;
2019/04/13 00:28:28;;;;;;;3.2;3;;;;;;;22.78;24.00684;1006.05;;;;
2019/04/13 00:31:43;;;;;;;3.7;3.4;;;;;;;22.78;23.99512;1005.973;;;;
2019/04/13 00:34:57;;;;;;;3.6;3.3;;;;;;;22.78;24.00684;1006.005;;;;
2019/04/13 00:38:15;;;;;;;3.3;3.1;;;;;;;22.78;24.00684;1006.028;;;;
2019/04/13 00:41:29;;;;;;;3.4;3.1;;;;;;;22.77;23.99512;1005.93;;;;
2019/04/13 00:44:49;;;;;;;3.5;3.2;;;;;;;22.76;24.00586;1005.914;;;;
2019/04/13 00:48:08;;;;;;;3.4;3.2;;;;;;;22.75;24.0293;1005.961;;;;
2019/04/13 00:51:23;;;;;;;3.6;3.3;;;;;;;22.74;24.04102;1005.917;;;;
2019/04/13 00:54:37;;;;;;;3.5;3.2;;;;;;;22.74;24.02832;1005.922;;;;
2019/04/13 00:57:52;;;;;;;3.7;3.4;;;;;;;22.75;24.0166;1005.893;;;;
2019/04/13 01:01:07;;;;;;;4;3.7;;;;;;;22.75;24.00488;1005.911;;;;
2019/04/13 01:04:26;;;;;;;3.5;3.2;;;;;;;22.74;24.0166;1005.954;;;;
2019/04/13 01:07:40;;;;;;;3.5;3.2;;;;;;;22.75;23.98145;1005.857;;;;
2019/04/13 01:10:53;;;;;;;3.7;3.4;;;;;;;22.74;24.00488;1005.895;;;;
2019/04/13 01:14:13;;;;;;;3.8;3.5;;;;;;;22.76;23.94727;1005.863;;;;
2019/04/13 01:17:29;;;;;;;3.6;3.3;;;;;;;22.76;23.94727;1005.854;;;;
2019/04/13 01:20:43;;;;;;;3.6;3.3;;;;;;;22.75;23.94629;1005.816;;;;
2019/04/13 01:23:58;;;;;;;3.7;3.4;;;;;;;22.75;23.94629;1005.82;;;;
2019/04/13 01:27:13;;;;;;;3.6;3.3;;;;;;;22.78;23.90137;1005.854;;;;
2019/04/13 01:30:32;;;;;;;3.9;3.6;;;;;;;22.75;23.92285;1005.806;;;;
2019/04/13 01:33:46;;;;;;;3.7;3.4;;;;;;;22.76;23.90039;1005.836;;;;
2019/04/13 01:37:02;;;;;;;3.7;3.4;;;;;;;22.74;23.95703;1005.84;;;;
2019/04/13 01:40:18;;;;;;;3.6;3.3;;;;;;;22.71;24.00293;1005.792;;;;
2019/04/13 01:43:34;;;;;;;3.6;3.2;;;;;;;22.68;24.06055;1005.765;;;;
2019/04/13 01:46:48;;;;;;;3.8;3.5;;;;;;;22.69;24.06152;1005.773;;;;
2019/04/13 01:50:02;;;;;;;3.8;3.5;;;;;;;22.69;24.0498;1005.804;;;;
2019/04/13 01:53:18;;;;;;;3.7;3.4;;;;;;;22.69;24.03809;1005.713;;;;
2019/04/13 01:56:34;;;;;;;3.7;3.4;;;;;;;22.69;24.08496;1005.722;;;;
2019/04/13 01:59:47;;;;;;;3.8;3.5;;;;;;;22.7;24.06152;1005.735;;;;
2019/04/13 02:03:02;;;;;;;3.6;3.3;;;;;;;22.7;24.06152;1005.739;;;;
2019/04/13 02:06:17;;;;;;;3.6;3.3;;;;;;;22.7;24.06152;1005.715;;;;
2019/04/13 02:09:56;;;;;;;3.9;3.5;;;;;;;22.71;24.05078;1005.759;;;;
2019/04/13 02:12:56;;;;;;;3.7;3.4;;;;;;;22.72;24.05078;1005.758;;;;
2019/04/13 02:16:10;;;;;;;3.9;3.6;;;;;;;22.72;24.03906;1005.767;;;;
2019/04/13 02:19:25;;;;;;;3.8;3.5;;;;;;;22.72;24.01563;1005.72;;;;
2019/04/13 02:22:43;;;;;;;3.8;3.5;;;;;;;22.72;24.02734;1005.744;;;;
2019/04/13 02:25:58;;;;;;;4.2;3.8;;;;;;;22.72;24.01563;1005.597;;;;
2019/04/13 02:29:13;;;;;;;3.9;3.6;;;;;;;22.71;24.01465;1005.632;;;;
2019/04/13 02:32:28;;;;;;;3.9;3.6;;;;;;;22.71;24.03906;1005.678;;;;
2019/04/13 02:35:41;;;;;;;3.9;3.6;;;;;;;22.69;24.06152;1005.654;;;;
2019/04/13 02:39:02;;;;;;;3.7;3.4;;;;;;;22.69;24.0498;1005.54;;;;
2019/04/13 02:42:20;;;;;;;3.8;3.5;;;;;;;22.69;24.0498;1005.591;;;;
2019/04/13 02:45:35;;;;;;;3.8;3.5;;;;;;;22.68;24.07227;1005.552;;;;
2019/04/13 02:48:49;;;;;;;3.9;3.5;;;;;;;22.67;24.08398;1005.544;;;;
2019/04/13 02:52:03;;;;;;;4;3.7;;;;;;;22.67;24.08398;1005.54;;;;
2019/04/13 02:55:18;;;;;;;3.8;3.5;;;;;;;22.67;24.07227;1005.44;;;;
2019/04/13 02:58:35;;;;;;;4;3.7;;;;;;;22.66;24.08301;1005.455;;;;
2019/04/13 03:01:49;;;;;;;4.2;3.8;;;;;;;22.66;24.05957;1005.406;;;;
2019/04/13 03:05:05;;;;;;;4.1;3.7;;;;;;;22.66;24.05957;1005.441;;;;
2019/04/13 03:08:18;;;;;;;4.1;3.7;;;;;;;22.65;24.05859;1005.407;;;;
2019/04/13 03:11:34;;;;;;;4;3.7;;;;;;;22.65;24.04688;1005.407;;;;
2019/04/13 03:14:49;;;;;;;3.8;3.5;;;;;;;22.65;24.03516;1005.343;;;;
2019/04/13 03:18:09;;;;;;;4;3.7;;;;;;;22.66;24.00098;1005.391;;;;
2019/04/13 03:21:24;;;;;;;4.1;3.8;;;;;;;22.67;23.97754;1005.399;;;;
2019/04/13 03:24:39;;;;;;;4;3.7;;;;;;;22.68;23.94238;1005.405;;;;
2019/04/13 03:27:53;;;;;;;3.9;3.6;;;;;;;22.68;23.9541;1005.315;;;;
2019/04/13 03:31:09;;;;;;;4;3.7;;;;;;;22.66;23.95313;1005.383;;;;
2019/04/13 03:34:23;;;;;;;4;3.7;;;;;;;22.66;23.9541;1005.418;;;;
2019/04/13 03:37:40;;;;;;;4.2;3.9;;;;;;;22.62;24.03418;1005.376;;;;
2019/04/13 03:40:55;;;;;;;4.5;4.1;;;;;;;22.62;24.0459;1005.341;;;;
2019/04/13 03:44:10;;;;;;;4;3.7;;;;;;;22.61;24.05664;1005.384;;;;
2019/04/13 03:47:24;;;;;;;4.2;3.8;;;;;;;22.61;24.0332;1005.333;;;;
2019/04/13 03:50:43;;;;;;;4.2;3.9;;;;;;;22.61;24.04492;1005.329;;;;
2019/04/13 03:53:58;;;;;;;3.9;3.6;;;;;;;22.61;24.05664;1005.333;;;;
2019/04/13 03:57:13;;;;;;;3.8;3.5;;;;;;;22.61;24.05664;1005.298;;;;
2019/04/13 04:00:26;;;;;;;4;3.7;;;;;;;22.63;24.01074;1005.287;;;;
2019/04/13 04:06:31;;;;;;;4.2;3.9;;;;;;;22.64;24.01074;1005.25;;;;
2019/04/13 04:09:44;;;;;;;3.9;3.6;;;;;;;22.64;24.02344;1005.3;;;;
2019/04/13 04:12:58;;;;;;;4;3.7;;;;;;;22.64;23.98828;1005.3;;;;
2019/04/13 04:16:13;;;;;;;4;3.7;;;;;;;22.65;23.96484;1005.292;;;;
2019/04/13 04:19:26;;;;;;;4.3;4;;;;;;;22.67;23.9541;1005.326;;;;
2019/04/13 04:22:39;;;;;;;3.9;3.6;;;;;;;22.64;23.97559;1005.364;;;;
2019/04/13 04:25:53;;;;;;;4.2;3.9;;;;;;;22.63;24.01074;1005.357;;;;
2019/04/13 04:29:08;;;;;;;4.2;3.9;;;;;;;22.62;23.97461;1005.326;;;;
2019/04/13 04:32:22;;;;;;;4.1;3.7;;;;;;;22.61;24.02148;1005.374;;;;
2019/04/13 04:35:36;;;;;;;3.7;3.4;;;;;;;22.61;23.99805;1005.452;;;;
2019/04/13 04:38:49;;;;;;;4.2;3.9;;;;;;;22.6;23.99707;1005.412;;;;
2019/04/13 04:42:03;;;;;;;4.5;4.2;;;;;;;22.6;23.97363;1005.381;;;;
2019/04/13 04:45:17;;;;;;;4.7;4.3;;;;;;;22.6;23.97363;1005.381;;;;
2019/04/13 04:48:30;;;;;;;4.7;4.3;;;;;;;22.6;23.9375;1005.34;;;;
2019/04/13 04:51:43;;;;;;;4.4;4;;;;;;;22.59;23.90234;1005.4;;;;
2019/04/13 04:54:56;;;;;;;4.3;4;;;;;;;22.59;23.90234;1005.361;;;;
2019/04/13 04:58:09;;;;;;;4.7;4.3;;;;;;;22.58;23.89063;1005.394;;;;
2019/04/13 05:01:21;;;;;;;4.3;4;;;;;;;22.58;23.89063;1005.367;;;;
2019/04/13 05:04:36;;;;;;;4.5;4.1;;;;;;;22.58;23.81934;1005.462;;;;
2019/04/13 05:07:49;;;;;;;4.8;4.4;;;;;;;22.59;23.7959;1005.355;;;;
2019/04/13 05:11:03;;;;;;;4.9;4.5;;;;;;;22.58;23.80762;1005.439;;;;
2019/04/13 05:14:17;;;;;;;4.7;4.3;;;;;;;22.59;23.76074;1005.451;;;;
2019/04/13 05:17:30;;;;;;;4.5;4.1;;;;;;;22.59;23.74902;1005.396;;;;
2019/04/13 05:20:43;;;;;;;4.6;4.2;;;;;;;22.6;23.74902;1005.446;;;;
2019/04/13 05:23:56;;;;;;;5.1;4.6;;;;;;;22.6;23.7373;1005.422;;;;
2019/04/13 05:27:08;;;;;;;4.5;4.1;;;;;;;22.63;23.69238;1005.444;;;;
2019/04/13 05:30:23;;;;;;;4.7;4.3;;;;;;;22.63;23.72754;1005.461;;;;
2019/04/13 05:33:37;;;;;;;4.7;4.2;;;;;;;22.64;23.75195;1005.483;;;;
2019/04/13 05:36:50;;;;;;;4.8;4.4;;;;;;;22.65;23.70508;1005.566;;;;
2019/04/13 05:40:04;;;;;;;4.9;4.5;;;;;;;22.68;23.65918;1005.515;;;;
2019/04/13 05:43:17;;;;;;;4.8;4.4;;;;;;;22.69;23.64844;1005.549;;;;
2019/04/13 05:46:31;;;;;;;5.2;4.5;;;;;;;22.72;23.59082;1005.571;;;;
2019/04/13 05:49:44;;;;;;;4.7;4.1;;;;;;;22.73;23.53223;1005.586;;;;
2019/04/13 05:52:56;;;;;;;4.8;4.4;;;;;;;22.76;23.5332;1005.626;;;;
2019/04/13 05:56:11;;;;;;;4.7;4.3;;;;;;;22.77;23.53418;1005.602;;;;
2019/04/13 05:59:24;;;;;;;4.6;4.2;;;;;;;22.8;23.47656;1005.631;;;;
2019/04/13 06:02:36;;;;;;;5.2;4.8;;;;;;;22.85;23.44434;1005.64;;;;
2019/04/13 06:05:49;;;;;;;4.9;4.5;;;;;;;22.89;23.37598;1005.64;;;;
2019/04/13 06:09:01;;;;;;;5.2;4.7;;;;;;;22.9;23.29297;1005.717;;;;
2019/04/13 06:12:15;;;;;;;5.3;4.9;;;;;;;22.9;23.3291;1005.73;;;;
2019/04/13 06:15:30;;;;;;;5.3;4.9;;;;;;;22.92;23.28223;1005.813;;;;
2019/04/13 06:18:42;;;;;;;5.3;4.8;;;;;;;22.95;23.24805;1005.835;;;;
2019/04/13 06:21:55;;;;;;;5.5;5;;;;;;;22.98;23.20313;1005.85;;;;
2019/04/13 06:25:08;;;;;;;5.2;4.8;;;;;;;22.99;23.16797;1005.835;;;;
2019/04/13 06:28:20;;;;;;;4.9;4.5;;;;;;;23;23.13379;1005.869;;;;
2019/04/13 06:31:49;;;;;;;5.1;4.7;;;;;;;23.01;23.13379;1005.84;;;;
2019/04/13 06:35:16;;;;;;;5.5;5;;;;;;;23.04;23.08789;1005.843;;;;
2019/04/13 06:38:31;;;;;;;5.5;4.9;;;;;;;23.05;23.03027;1005.858;;;;
2019/04/13 06:41:43;;;;;;;5.4;5;;;;;;;23.05;23.05273;1005.887;;;;
2019/04/13 06:44:56;;;;;;;5;4.6;;;;;;;23.06;22.99512;1005.911;;;;
2019/04/13 06:48:11;;;;;;;5.3;4.9;;;;;;;23.1;22.94922;1005.954;;;;
2019/04/13 06:51:24;;;;;;;5.1;4.7;;;;;;;23.15;22.9043;1005.971;;;;
2019/04/13 06:54:36;;;;;;;5.5;5.1;;;;;;;23.19;22.71777;1005.917;;;;
2019/04/13 06:57:50;;;;;;;5.5;5.1;;;;;;;23.2;22.75391;1005.933;;;;
2019/04/13 07:01:02;;;;;;;5.1;4.7;;;;;;;23.2;22.60059;1005.919;;;;
2019/04/13 07:04:15;;;;;;;5.2;4.8;;;;;;;23.17;22.7168;1005.88;;;;
2019/04/13 07:07:43;;;;;;;5.9;5.3;;;;;;;23.16;22.74023;1005.886;;;;
2019/04/13 07:11:22;;;;;;;5.8;5.3;;;;;;;23.16;22.72852;1005.905;;;;
2019/04/13 07:14:37;;;;;;;5.7;5.2;;;;;;;23.18;22.7168;1005.855;;;;
2019/04/13 07:17:50;;;;;;;5.2;4.8;;;;;;;23.21;22.64746;1005.914;;;;
2019/04/13 07:21:03;;;;;;;5.6;5.1;;;;;;;23.18;22.69434;1005.914;;;;
2019/04/13 07:24:17;;;;;;;5.5;5.1;;;;;;;23.24;22.62598;1006.035;;;;
2019/04/13 07:27:30;;;;;;;5.8;5.3;;;;;;;23.32;22.52344;1005.898;;;;
2019/04/13 07:30:42;;;;;;;5.5;5.1;;;;;;;23.34;22.37109;1006.013;;;;
2019/04/13 07:33:57;;;;;;;6;5.5;;;;;;;23.31;22.4043;1005.98;;;;
2019/04/13 07:37:09;;;;;;;6.1;5.6;;;;;;;23.21;22.50586;1005.881;;;;
2019/04/13 07:40:23;;;;;;;5.8;5.3;;;;;;;23.19;22.59961;1005.899;;;;
2019/04/13 07:43:36;;;;;;;5.6;5.2;;;;;;;23.18;22.54004;1005.891;;;;
2019/04/13 07:53:48;;;;;;;5.8;5.2;;;;;;;23.21;22.45898;1006.041;;;;
2019/04/13 07:57:03;;;;;;;5.7;5.2;;;;;;;23.2;22.55273;1006.005;;;;
2019/04/13 08:00:15;;;;;;;5.3;4.9;;;;;;;23.18;22.54004;1006.037;;;;
2019/04/13 08:03:28;;;;;;;5.7;5.2;;;;;;;23.17;22.5625;1005.999;;;;
2019/04/13 08:06:41;;;;;;;6.3;5.7;;;;;;;23.19;22.52832;1005.995;;;;
2019/04/13 08:09:53;;;;;;;5.6;5.1;;;;;;;23.22;22.4707;1006.053;;;;
2019/04/13 08:13:06;;;;;;;5.7;5.2;;;;;;;23.21;22.48242;1006.022;;;;
2019/04/13 08:16:20;;;;;;;5.7;5.2;;;;;;;23.31;22.38086;1006.07;;;;
2019/04/13 08:19:39;;;;;;;5.7;5.2;;;;;;;23.35;22.27637;1006.044;;;;
2019/04/13 08:22:53;;;;;;;6;5.5;;;;;;;23.61;21.8291;1006.022;;;;
2019/04/13 08:26:06;;;;;;;6.3;5.8;;;;;;;23.76;21.68164;1006.082;;;;
2019/04/13 08:29:20;;;;;;;6;5.5;;;;;;;23.93;21.3584;1006.011;;;;
2019/04/13 08:32:33;;;;;;;6.3;5.8;;;;;;;23.77;21.49316;1005.961;;;;
2019/04/13 08:35:46;;;;;;;6.5;6;;;;;;;23.71;21.70313;1005.987;;;;
2019/04/13 08:39:00;;;;;;;6.2;5.7;;;;;;;23.65;21.53516;1005.949;;;;
2019/04/13 08:42:13;;;;;;;6.4;5.8;;;;;;;23.54;21.81348;1005.941;;;;
2019/04/13 08:45:26;;;;;;;6.2;5.7;;;;;;;23.5;21.72852;1005.98;;;;
2019/04/13 08:48:40;;;;;;;6.5;5.9;;;;;;;23.47;21.86914;1005.941;;;;
2019/04/13 08:51:53;;;;;;;6.3;5.8;;;;;;;23.51;21.77637;1005.965;;;;
2019/04/13 08:55:06;;;;;;;6.1;5.6;;;;;;;23.43;21.84277;1005.955;;;;
2019/04/13 08:58:19;;;;;;;6.9;6.3;;;;;;;23.51;21.84766;1005.91;;;;
2019/04/13 09:01:31;;;;;;;6.4;5.8;;;;;;;23.62;21.62891;1005.897;;;;
2019/04/13 09:04:46;;;;;;;6.6;6.1;;;;;;;23.58;21.67383;1005.936;;;;
2019/04/13 09:07:58;;;;;;;6.4;5.9;;;;;;;23.53;21.78906;1005.951;;;;
2019/04/13 09:11:11;;;;;;;6.5;5.9;;;;;;;23.48;21.81055;1005.971;;;;
2019/04/13 09:14:23;;;;;;;6.5;5.9;;;;;;;23.45;21.93848;1005.909;;;;
2019/04/13 09:18:04;;;;;;;6.3;5.8;;;;;;;23.4;21.94824;1005.92;;;;
2019/04/13 09:21:40;;;;;;;6.7;6.1;;;;;;;23.36;22.04102;1005.877;;;;
2019/04/13 09:24:54;;;;;;;6.5;5.9;;;;;;;23.33;22.05176;1005.879;;;;
2019/04/13 09:28:07;;;;;;;6.1;5.6;;;;;;;23.32;22.13379;1005.912;;;;
2019/04/13 09:31:20;;;;;;;6.1;5.6;;;;;;;23.33;22.11035;1005.893;;;;
2019/04/13 09:34:33;;;;;;;6.5;5.9;;;;;;;23.35;22.11133;1005.865;;;;
2019/04/13 09:37:46;;;;;;;6;5.5;;;;;;;23.36;22.07617;1005.859;;;;
2019/04/13 09:41:00;;;;;;;6.5;6;;;;;;;23.41;22.05469;1005.827;;;;
2019/04/13 09:46:52;;;;;;;6.4;5.8;;;;;;;23.36;22.08887;1005.791;;;;
2019/04/13 09:50:07;;;;;;;6.2;5.6;;;;;;;23.29;22.17871;1005.769;;;;
2019/04/13 09:53:21;;;;;;;6;5.5;;;;;;;23.3;22.16797;1005.684;;;;
2019/04/13 09:56:35;;;;;;;6.4;5.9;;;;;;;23.3;22.14453;1005.662;;;;
2019/04/13 09:59:47;;;;;;;6.6;6;;;;;;;23.28;22.14355;1005.656;;;;
2019/04/13 10:03:03;;;;;;;6.7;6.1;;;;;;;23.26;22.18945;1005.711;;;;
2019/04/13 10:06:16;;;;;;;7.1;6;;;;;;;23.26;22.16602;1005.67;;;;
2019/04/13 10:09:31;;;;;;;6.6;6;;;;;;;23.26;22.19043;1005.633;;;;
2019/04/13 10:12:55;;;;;;;6.4;5.9;;;;;;;23.25;22.21289;1005.648;;;;
2019/04/13 10:20:03;;;;;;;6.8;6.2;;;;;;;23.21;22.25781;1005.638;;;;
2019/04/13 10:23:16;;;;;;;6.6;6;;;;;;;23.23;22.23535;1005.68;;;;
2019/04/13 10:26:29;;;;;;;6.4;5.8;;;;;;;23.25;22.23633;1005.631;;;;
2019/04/13 10:29:44;;;;;;;6.6;6;;;;;;;23.24;22.22363;1005.632;;;;
2019/04/13 10:32:57;;;;;;;6.7;6.2;;;;;;;23.24;22.23633;1005.61;;;;
2019/04/13 10:36:12;;;;;;;6.4;5.9;;;;;;;23.2;22.24609;1005.577;;;;
2019/04/13 10:39:25;;;;;;;6.7;6.1;;;;;;;23.19;22.32813;1005.561;;;;
2019/04/13 10:42:40;;;;;;;6.8;6.2;;;;;;;23.2;22.29297;1005.545;;;;
2019/04/13 10:52:28;;;;;;;6.8;6.2;;;;;;;23.21;22.30566;1005.529;;;;
2019/04/13 10:55:41;;;;;;;6.9;6.3;;;;;;;23.2;22.29297;1005.55;;;;
2019/04/13 10:58:55;;;;;;;6.5;6;;;;;;;23.2;22.33984;1005.514;;;;
2019/04/13 11:02:08;;;;;;;7;6.4;;;;;;;23.17;22.3623;1005.575;;;;
2019/04/13 11:05:22;;;;;;;7.1;6.5;;;;;;;23.14;22.4082;1005.567;;;;
2019/04/13 11:08:34;;;;;;;6.9;6.3;;;;;;;23.12;22.4668;1005.588;;;;
2019/04/13 11:11:47;;;;;;;7.3;6.7;;;;;;;23.11;22.48926;1005.554;;;;
2019/04/13 11:14:59;;;;;;;6.9;6.3;;;;;;;23.11;22.5127;1005.591;;;;
2019/04/13 11:18:15;;;;;;;7.1;6.5;;;;;;;23.08;22.55859;1005.574;;;;
2019/04/13 11:21:30;;;;;;;6.7;6.1;;;;;;;23.05;22.59277;1005.447;;;;
2019/04/13 11:24:42;;;;;;;7.2;6.6;;;;;;;23.07;22.58203;1005.49;;;;
2019/04/13 11:27:57;;;;;;;6.9;6.3;;;;;;;23.03;22.63867;1005.567;;;;
2019/04/13 11:31:10;;;;;;;7.3;6.7;;;;;;;23;22.67285;1005.517;;;;
2019/04/13 11:34:25;;;;;;;7.1;6.4;;;;;;;23;22.69629;1005.527;;;;
2019/04/13 11:37:38;;;;;;;7.1;6.4;;;;;;;22.98;22.71875;1005.5;;;;
2019/04/13 11:41:00;;;;;;;7.2;6.6;;;;;;;22.96;22.76465;1005.536;;;;
2019/04/13 11:51:21;;;;;;;7.4;6.8;;;;;;;22.92;22.8457;1005.53;;;;
2019/04/13 11:54:34;;;;;;;7;6.4;;;;;;;22.89;22.90332;1005.53;;;;
2019/04/13 11:57:47;;;;;;;7.3;6.6;;;;;;;22.95;22.83594;1005.469;;;;
2019/04/13 12:08:03;;;;;;;7.2;6.6;;;;;;;22.95;22.83594;1005.51;;;;
2019/04/13 12:14:31;;;;;;;7.2;6.5;;;;;;;22.96;22.87109;1005.544;;;;
2019/04/13 12:17:53;;;;;;;6.1;5.7;;;;;;;22.97;22.87207;1005.509;;;;
2019/04/13 12:25:04;;;;;;;6.6;6.1;;;;;;;22.96;22.90625;1005.563;;;;
2019/04/13 12:28:16;;;;;;;6.9;6.3;;;;;;;22.95;22.90625;1005.496;;;;
2019/04/13 12:31:29;;;;;;;6.9;6.3;;;;;;;23;22.8623;1005.458;;;;
2019/04/13 12:34:44;;;;;;;6.7;6.1;;;;;;;23.01;22.82617;1005.488;;;;
2019/04/13 12:37:56;;;;;;;6.7;6.1;;;;;;;23;22.87305;1005.495;;;;
2019/04/13 12:41:24;;;;;;;7;6.4;;;;;;;22.99;22.9082;1005.51;;;;
2019/04/13 12:44:37;;;;;;;6.1;5.6;;;;;;;22.99;22.93164;1005.506;;;;
2019/04/13 12:47:50;;;;;;;6.6;6;;;;;;;22.98;22.9668;1005.541;;;;
2019/04/13 12:51:04;;;;;;;7.2;6.6;;;;;;;22.96;22.97754;1005.48;;;;
2019/04/13 12:54:18;;;;;;;6.9;6.3;;;;;;;22.98;22.97852;1005.485;;;;
2019/04/13 12:57:33;;;;;;;6.4;5.9;;;;;;;23.01;22.95703;1005.492;;;;
2019/04/13 13:00:48;;;;;;;7.1;6.5;;;;;;;23.03;22.94629;1005.448;;;;
2019/04/13 13:04:03;;;;;;;7.2;6.5;;;;;;;23.03;22.95703;1005.499;;;;
2019/04/13 13:07:16;;;;;;;7;6.4;;;;;;;22.99;23.02637;1005.542;;;;
2019/04/13 13:10:31;;;;;;;6.6;6;;;;;;;22.98;23.06152;1005.567;;;;
2019/04/13 13:13:43;;;;;;;6.8;6.2;;;;;;;22.98;23.08496;1005.512;;;;
2019/04/13 13:16:57;;;;;;;6.7;6.1;;;;;;;23;23.07422;1005.476;;;;
2019/04/13 13:20:09;;;;;;;6.7;6.1;;;;;;;23.02;23.08691;1005.559;;;;
2019/04/13 13:23:23;;;;;;;6.8;6.3;;;;;;;22.99;23.13184;1005.489;;;;
2019/04/13 13:26:38;;;;;;;7;6.4;;;;;;;22.96;23.21387;1005.489;;;;
2019/04/13 13:29:52;;;;;;;7;6.3;;;;;;;22.93;23.29492;1005.472;;;;
2019/04/13 13:33:06;;;;;;;6.6;6;;;;;;;22.93;23.33008;1005.509;;;;
2019/04/13 13:36:18;;;;;;;6.8;6.2;;;;;;;22.91;23.41211;1005.518;;;;
2019/04/13 13:39:32;;;;;;;6.5;5.9;;;;;;;22.9;23.44629;1005.505;;;;
2019/04/13 13:42:45;;;;;;;6.4;5.9;;;;;;;22.89;23.50488;1005.454;;;;
2019/04/13 13:45:59;;;;;;;6.7;6.1;;;;;;;22.88;23.56348;1005.414;;;;
2019/04/13 13:49:12;;;;;;;6.5;6;;;;;;;22.9;23.58887;1005.439;;;;
2019/04/13 13:52:24;;;;;;;6.4;5.9;;;;;;;22.9;23.63574;1005.402;;;;
2019/04/13 13:55:41;;;;;;;6.3;5.7;;;;;;;22.87;23.7168;1005.371;;;;
2019/04/13 13:59:03;;;;;;;6.3;5.8;;;;;;;22.85;23.77441;1005.421;;;;
2019/04/13 14:02:26;;;;;;;6.2;5.7;;;;;;;22.83;23.83301;1005.406;;;;
2019/04/13 14:05:39;;;;;;;5.9;5.4;;;;;;;22.84;23.83301;1005.381;;;;
2019/04/13 14:08:54;;;;;;;6.3;5.8;;;;;;;22.91;23.79004;1005.34;;;;
2019/04/13 14:12:07;;;;;;;6.6;5.9;;;;;;;22.97;23.71094;1005.331;;;;
2019/04/13 14:15:19;;;;;;;6;5.5;;;;;;;22.95;23.74512;1005.272;;;;
2019/04/13 14:18:33;;;;;;;6.4;5.8;;;;;;;22.96;23.75684;1005.293;;;;
2019/04/13 14:21:47;;;;;;;6.6;6;;;;;;;22.98;23.75781;1005.285;;;;
2019/04/13 14:25:00;;;;;;;6.6;6;;;;;;;22.99;23.75879;1005.328;;;;
2019/04/13 14:28:14;;;;;;;6.5;6;;;;;;;22.99;23.77051;1005.36;;;;
2019/04/13 14:31:28;;;;;;;6.1;5.6;;;;;;;22.97;23.79297;1005.318;;;;
2019/04/13 14:34:41;;;;;;;6.4;5.9;;;;;;;22.95;23.82715;1005.35;;;;
2019/04/13 14:37:53;;;;;;;6.1;5.6;;;;;;;22.93;23.88477;1005.386;;;;
2019/04/13 14:41:07;;;;;;;6.8;6.2;;;;;;;22.9;23.91895;1005.265;;;;
2019/04/13 14:44:20;;;;;;;6.5;6;;;;;;;22.86;23.97559;1005.296;;;;
2019/04/13 14:47:35;;;;;;;6.1;5.6;;;;;;;22.85;24.01074;1005.293;;;;
2019/04/13 14:50:48;;;;;;;6.7;6.1;;;;;;;22.86;24.01074;1005.351;;;;
2019/04/13 14:54:01;;;;;;;5.7;5.3;;;;;;;22.86;24.01074;1005.374;;;;
2019/04/13 14:57:13;;;;;;;6.3;5.8;;;;;;;22.86;24.01074;1005.351;;;;
2019/04/13 15:00:26;;;;;;;6;5.5;;;;;;;22.86;24.02246;1005.419;;;;
2019/04/13 15:03:41;;;;;;;6.2;5.7;;;;;;;22.89;24.00098;1005.395;;;;
2019/04/13 15:06:55;;;;;;;5.9;5.4;;;;;;;22.9;23.99023;1005.402;;;;
2019/04/13 15:10:08;;;;;;;6.2;5.7;;;;;;;22.91;23.97754;1005.373;;;;
2019/04/13 15:13:22;;;;;;;5.3;4.9;;;;;;;22.94;23.93359;1005.388;;;;
2019/04/13 15:16:35;;;;;;;5.9;5.4;;;;;;;22.93;23.95605;1005.427;;;;
2019/04/13 15:19:48;;;;;;;5.9;5.4;;;;;;;22.95;23.94531;1005.409;;;;
2019/04/13 15:23:04;;;;;;;6;5.5;;;;;;;22.97;23.93457;1005.419;;;;
2019/04/13 15:26:17;;;;;;;5.8;5.3;;;;;;;22.97;23.92285;1005.482;;;;
2019/04/13 15:29:30;;;;;;;5.9;5.4;;;;;;;22.95;23.95703;1005.487;;;;
2019/04/13 15:32:45;;;;;;;6.1;5.6;;;;;;;22.95;23.96875;1005.432;;;;
2019/04/13 15:35:57;;;;;;;6.4;5.9;;;;;;;22.97;23.95801;1005.437;;;;
2019/04/13 15:39:18;;;;;;;6;5.5;;;;;;;22.98;23.95898;1005.404;;;;
2019/04/13 15:42:31;;;;;;;5.9;5.4;;;;;;;22.99;23.9707;1005.397;;;;
2019/04/13 15:45:44;;;;;;;5.8;5.3;;;;;;;22.99;23.98242;1005.438;;;;
2019/04/13 15:48:57;;;;;;;5.9;5.5;;;;;;;22.98;24.01758;1005.39;;;;
2019/04/13 15:52:12;;;;;;;5.8;5.3;;;;;;;22.98;24.05273;1005.445;;;;
2019/04/13 15:55:28;;;;;;;5.9;5.5;;;;;;;22.97;24.07715;1005.441;;;;
2019/04/13 15:58:40;;;;;;;5.7;5.2;;;;;;;22.94;24.11035;1005.402;;;;
2019/04/13 16:01:53;;;;;;;6.3;5.8;;;;;;;22.93;24.14453;1005.46;;;;
2019/04/13 16:05:06;;;;;;;5.6;5.1;;;;;;;22.92;24.19141;1005.471;;;;
2019/04/13 16:08:18;;;;;;;6;5.5;;;;;;;22.88;24.27246;1005.414;;;;
2019/04/13 16:11:36;;;;;;;5.4;5;;;;;;;22.85;24.31836;1005.462;;;;
2019/04/13 16:14:49;;;;;;;5.8;5.4;;;;;;;22.84;24.34082;1005.482;;;;
2019/04/13 16:18:03;;;;;;;5.9;5.4;;;;;;;22.85;24.35254;1005.522;;;;
2019/04/13 16:21:17;;;;;;;6.2;5.7;;;;;;;22.9;24.30859;1005.498;;;;
2019/04/13 16:24:30;;;;;;;5.4;4.9;;;;;;;22.88;24.30762;1005.487;;;;
2019/04/13 16:27:58;;;;;;;5.8;5.3;;;;;;;22.87;24.35449;1005.435;;;;
2019/04/13 16:31:32;;;;;;;5.5;5.1;;;;;;;22.87;24.36621;1005.43;;;;
2019/04/13 16:35:18;;;;;;;5.9;5.4;;;;;;;22.85;24.38867;1005.425;;;;
2019/04/13 16:38:33;;;;;;;5.5;5.1;;;;;;;22.83;24.42285;1005.453;;;;
2019/04/13 16:41:47;;;;;;;5.7;5.2;;;;;;;22.83;24.43457;1005.484;;;;
2019/04/13 16:45:22;;;;;;;5.3;4.9;;;;;;;22.81;24.49219;1005.444;;;;
2019/04/13 16:48:45;;;;;;;5.9;5.4;;;;;;;22.81;24.49219;1005.475;;;;
2019/04/13 16:55:33;;;;;;;5.5;5.1;;;;;;;22.78;24.53809;1005.422;;;;
2019/04/13 16:59:03;;;;;;;5.4;4.9;;;;;;;22.78;24.5498;1005.43;;;;
2019/04/13 17:05:48;;;;;;;5.6;5.2;;;;;;;22.73;24.61816;1005.49;;;;
2019/04/13 17:09:03;;;;;;;5.8;5.3;;;;;;;22.74;24.61816;1005.412;;;;
2019/04/13 17:12:17;;;;;;;5.7;5.1;;;;;;;22.75;24.5957;1005.441;;;;
2019/04/13 17:15:29;;;;;;;5.7;5.2;;;;;;;22.76;24.58496;1005.388;;;;
2019/04/13 17:18:56;;;;;;;5.2;4.8;;;;;;;22.75;24.61914;1005.405;;;;
2019/04/13 17:22:18;;;;;;;5.4;5;;;;;;;22.75;24.61914;1005.474;;;;
2019/04/13 17:25:48;;;;;;;5.5;5.1;;;;;;;22.71;24.65234;1005.499;;;;
2019/04/13 17:32:43;;;;;;;5.6;5.1;;;;;;;22.68;24.70996;1005.405;;;;
2019/04/13 17:35:59;;;;;;;5.5;5;;;;;;;22.66;24.74414;1005.377;;;;
2019/04/13 17:39:12;;;;;;;6;5.5;;;;;;;22.64;24.77832;1005.432;;;;
2019/04/13 17:46:08;;;;;;;5.5;5;;;;;;;22.58;24.85742;1005.398;;;;
2019/04/13 17:55:58;;;;;;;6.2;5.1;;;;;;;22.55;24.92676;1005.423;;;;
2019/04/13 18:05:59;;;;;;;5.9;5.4;;;;;;;22.51;24.9834;1005.372;;;;
2019/04/13 18:09:37;;;;;;;5.7;5.2;;;;;;;22.51;25.00684;1005.404;;;;
2019/04/13 18:17:28;;;;;;;5.5;5.1;;;;;;;22.49;25.05273;1005.404;;;;
2019/04/13 18:19:23;;;;;;;5.5;5.1;;;;;;;22.49;25.05273;1005.481;;;;
2019/04/13 18:22:36;;;;;;;5.8;5.3;;;;;;;22.47;25.07617;1005.52;;;;
2019/04/13 18:25:51;;;;;;;5.8;5.3;;;;;;;22.48;25.08789;1005.542;;;;
2019/04/13 18:29:04;;;;;;;5.3;4.9;;;;;;;22.47;25.11133;1005.562;;;;
2019/04/13 18:32:20;;;;;;;5.6;5.2;;;;;;;22.47;25.11133;1005.602;;;;
2019/04/13 18:35:35;;;;;;;5.8;5.4;;;;;;;22.47;25.12207;1005.653;;;;
2019/04/13 18:38:47;;;;;;;5.6;5.1;;;;;;;22.48;25.11133;1005.607;;;;
2019/04/13 18:42:01;;;;;;;5.8;5.3;;;;;;;22.46;25.1582;1005.559;;;;
2019/04/13 18:45:16;;;;;;;5.2;4.8;;;;;;;22.43;25.19141;1005.593;;;;
2019/04/13 18:48:31;;;;;;;5.6;5.1;;;;;;;22.45;25.19238;1005.654;;;;
2019/04/13 18:51:44;;;;;;;5.7;5.2;;;;;;;22.43;25.20313;1005.612;;;;
2019/04/13 18:54:59;;;;;;;5.3;4.9;;;;;;;22.43;25.21484;1005.634;;;;
2019/04/13 18:58:14;;;;;;;5.5;5;;;;;;;22.43;25.21484;1005.625;;;;
2019/04/13 19:01:28;;;;;;;5.9;5.4;;;;;;;22.43;25.22656;1005.735;;;;
2019/04/13 19:04:46;;;;;;;5.5;5;;;;;;;22.43;25.23828;1005.772;;;;
2019/04/13 19:07:59;;;;;;;5.4;5;;;;;;;22.41;25.27246;1005.738;;;;
2019/04/13 19:11:12;;;;;;;5.3;4.9;;;;;;;22.41;25.2959;1005.784;;;;
2019/04/13 19:14:25;;;;;;;5.5;5.1;;;;;;;22.4;25.29492;1005.819;;;;
2019/04/13 19:17:39;;;;;;;5.7;5.2;;;;;;;22.4;25.31934;1005.791;;;;
2019/04/13 19:20:55;;;;;;;5.4;5;;;;;;;22.4;25.31934;1005.832;;;;
2019/04/13 19:24:08;;;;;;;5.1;4.7;;;;;;;22.38;25.35352;1005.917;;;;
2019/04/13 19:27:21;;;;;;;5.4;5;;;;;;;22.38;25.35352;1005.913;;;;
2019/04/13 19:30:39;;;;;;;5.6;5.1;;;;;;;22.38;25.36523;1005.937;;;;
2019/04/13 19:33:52;;;;;;;5.7;5.2;;;;;;;22.38;25.36523;1005.958;;;;
2019/04/13 19:37:06;;;;;;;5.2;4.8;;;;;;;22.37;25.37598;1005.975;;;;
2019/04/13 19:40:19;;;;;;;5.3;4.9;;;;;;;22.36;25.3877;1005.957;;;;
2019/04/13 19:43:34;;;;;;;5.4;4.9;;;;;;;22.35;25.39941;1005.982;;;;
2019/04/13 19:46:48;;;;;;;5.3;4.8;;;;;;;22.34;25.42188;1005.976;;;;
2019/04/13 19:50:01;;;;;;;5.4;4.9;;;;;;;22.36;25.41113;1006.014;;;;
2019/04/13 19:53:42;;;;;;;5.5;5;;;;;;;22.35;25.43457;1005.961;;;;
2019/04/13 19:56:55;;;;;;;5.3;4.9;;;;;;;22.35;25.43457;1005.992;;;;
2019/04/13 20:00:13;;;;;;;5.6;5.1;;;;;;;22.33;25.46875;1005.951;;;;
2019/04/13 20:03:29;;;;;;;5.6;5.1;;;;;;;22.31;25.46777;1005.945;;;;
2019/04/13 20:06:42;;;;;;;5.1;4.7;;;;;;;22.32;25.46777;1005.902;;;;
2019/04/13 20:09:56;;;;;;;4.9;4.6;;;;;;;22.32;25.46777;1005.889;;;;
2019/04/13 20:13:09;;;;;;;6;5.5;;;;;;;22.31;25.49023;1005.868;;;;
2019/04/13 20:16:24;;;;;;;5.1;4.7;;;;;;;22.3;25.51367;1005.871;;;;
2019/04/13 20:19:37;;;;;;;5.3;4.8;;;;;;;22.29;25.52539;1005.891;;;;
2019/04/13 20:22:53;;;;;;;5.2;4.8;;;;;;;22.31;25.50293;1005.89;;;;
2019/04/13 20:26:07;;;;;;;5.7;5.1;;;;;;;22.29;25.52539;1005.845;;;;